Time;durP1;ratioP1;P1;durP2;ratioP2;P2;SDS_P1;SDS_P2;PMS_P1;PMS_P2;Temp;Humidity;BMP_temperature;BMP_pressure;BME280_temperature;BME280_humidity;BME280_pressure;Samples;Min_cycle;Max_cycle;Signal;HPM_P1;HPM_P2
2023/04/28 00:01:27;;;;;;;19.20;11.25;;;11.60;42.10;;;;;;5072246;28;20434;-74
2023/04/28 00:03:54;;;;;;;16.45;10.73;;;11.60;40.40;;;;;;5072676;28;20403;-75
2023/04/28 00:06:19;;;;;;;19.17;10.80;;;11.80;38.10;;;;;;5072513;28;20388;-75
2023/04/28 00:08:45;;;;;;;22.20;12.10;;;11.90;37.80;;;;;;5072797;28;20445;-74
2023/04/28 00:11:10;;;;;;;17.93;11.80;;;11.70;39.40;;;;;;5072005;28;20437;-74
2023/04/28 00:13:37;;;;;;;17.83;11.33;;;11.80;40.60;;;;;;5072564;28;20436;-73
2023/04/28 00:16:03;;;;;;;19.92;12.00;;;11.80;41.50;;;;;;5054300;28;20756;-74
2023/04/28 00:18:28;;;;;;;19.63;11.43;;;11.60;42.80;;;;;;5054319;28;20387;-74
2023/04/28 00:20:54;;;;;;;20.77;12.05;;;11.50;45.80;;;;;;5071622;28;20376;-72
2023/04/28 00:23:20;;;;;;;25.77;12.57;;;11.70;42.70;;;;;;5072050;28;20396;-73
2023/04/28 00:25:53;;;;;;;20.88;13.02;;;11.90;46.20;;;;;;5072091;28;20387;-73
2023/04/28 00:28:19;;;;;;;23.50;12.70;;;11.70;47.50;;;;;;5071954;28;20436;-73
2023/04/28 00:30:45;;;;;;;19.95;12.60;;;11.50;49.00;;;;;;5054206;28;20388;-74
2023/04/28 00:33:11;;;;;;;23.25;12.35;;;11.40;50.20;;;;;;5071820;28;20384;-74
2023/04/28 00:35:36;;;;;;;18.40;12.60;;;11.40;51.10;;;;;;5071895;28;20781;-73
2023/04/28 00:38:02;;;;;;;19.77;11.67;;;11.40;52.20;;;;;;5072512;28;20396;-74
2023/04/28 00:40:35;;;;;;;19.33;12.37;;;11.30;54.00;;;;;;5072196;28;20372;-74
2023/04/28 00:43:01;;;;;;;17.70;11.55;;;11.30;52.50;;;;;;5072288;28;20904;-73
2023/04/28 00:45:27;;;;;;;20.90;12.50;;;11.30;52.00;;;;;;5072445;28;20395;-73
2023/04/28 00:47:53;;;;;;;20.30;12.65;;;11.30;54.60;;;;;;5072207;28;20388;-73
2023/04/28 00:50:19;;;;;;;23.20;13.90;;;11.20;60.20;;;;;;5070988;28;20396;-74
2023/04/28 00:52:46;;;;;;;24.23;14.30;;;11.10;62.30;;;;;;5071253;28;20733;-74
2023/04/28 00:55:14;;;;;;;21.65;12.60;;;11.00;63.90;;;;;;5071597;28;20462;-74
2023/04/28 00:57:40;;;;;;;20.13;13.20;;;11.00;64.90;;;;;;5071782;28;20391;-73
2023/04/28 01:00:07;;;;;;;20.25;13.52;;;11.00;64.80;;;;;;5072118;28;20403;-74
2023/04/28 01:02:33;;;;;;;21.65;12.43;;;11.00;65.80;;;;;;5071251;28;20791;-74
2023/04/28 01:05:00;;;;;;;21.58;13.15;;;11.10;67.10;;;;;;5071975;28;20380;-73
2023/04/28 01:07:25;;;;;;;18.63;12.48;;;11.20;66.30;;;;;;5072179;28;20466;-74
2023/04/28 01:09:51;;;;;;;17.83;12.70;;;11.20;67.30;;;;;;5074246;28;20858;-74
2023/04/28 01:12:16;;;;;;;20.40;13.77;;;11.30;65.60;;;;;;5080920;28;20414;-74
2023/04/28 01:14:42;;;;;;;25.27;13.35;;;11.20;67.60;;;;;;5080800;28;20467;-74
2023/04/28 01:17:09;;;;;;;21.10;13.75;;;11.20;70.00;;;;;;5079955;28;20380;-74
2023/04/28 01:19:34;;;;;;;22.70;13.50;;;11.10;71.30;;;;;;5075974;28;20403;-75
2023/04/28 01:22:00;;;;;;;21.80;13.55;;;11.10;73.00;;;;;;5076326;28;20390;-75
2023/04/28 01:24:26;;;;;;;23.48;14.90;;;11.00;74.60;;;;;;5077453;28;20407;-74
2023/04/28 01:26:51;;;;;;;26.00;14.70;;;11.00;77.20;;;;;;5077011;28;20495;-74
2023/04/28 01:29:17;;;;;;;26.83;16.23;;;10.90;82.90;;;;;;5074255;28;20456;-75
2023/04/28 01:31:42;;;;;;;26.17;13.37;;;10.90;87.20;;;;;;5072214;28;20379;-73
2023/04/28 01:34:08;;;;;;;20.93;13.10;;;10.90;87.20;;;;;;5071306;28;20387;-74
2023/04/28 01:36:33;;;;;;;22.63;12.43;;;10.90;85.50;;;;;;5071074;28;20383;-74
2023/04/28 01:38:59;;;;;;;19.00;12.10;;;11.00;82.40;;;;;;5071279;28;20380;-74
2023/04/28 01:41:25;;;;;;;18.40;11.80;;;11.00;82.40;;;;;;5070445;28;20383;-74
2023/04/28 01:43:51;;;;;;;19.40;12.27;;;11.00;81.30;;;;;;5070946;28;20403;-75
2023/04/28 01:46:16;;;;;;;18.30;11.70;;;10.90;81.40;;;;;;5052914;28;20387;-75
2023/04/28 01:48:42;;;;;;;17.80;11.60;;;10.90;81.90;;;;;;5070833;28;20875;-75
2023/04/28 01:51:10;;;;;;;19.27;11.77;;;10.90;84.00;;;;;;5070103;28;20398;-75
2023/04/28 01:53:36;;;;;;;21.67;11.80;;;10.90;84.70;;;;;;5071329;28;20860;-75
2023/04/28 01:56:01;;;;;;;21.15;11.23;;;10.80;85.80;;;;;;5070683;28;20479;-74
2023/04/28 01:58:27;;;;;;;17.80;11.60;;;10.80;86.00;;;;;;5070655;28;20402;-74
2023/04/28 02:00:53;;;;;;;18.23;10.50;;;10.90;85.40;;;;;;5069769;28;20478;-74
2023/04/28 02:03:18;;;;;;;18.20;10.68;;;11.00;84.00;;;;;;5070334;28;20391;-73
2023/04/28 02:05:44;;;;;;;17.77;10.60;;;11.00;83.90;;;;;;5070593;28;20395;-75
2023/04/28 02:08:09;;;;;;;13.87;9.90;;;11.00;82.90;;;;;;5070445;28;20865;-75
2023/04/28 02:10:35;;;;;;;15.40;10.10;;;11.10;77.00;;;;;;5070489;28;20395;-74
2023/04/28 02:13:00;;;;;;;14.97;9.63;;;11.40;71.70;;;;;;5069914;28;20454;-75
2023/04/28 02:15:26;;;;;;;14.80;9.97;;;11.30;71.20;;;;;;5070240;28;20811;-74
2023/04/28 02:17:52;;;;;;;21.08;9.95;;;11.20;73.00;;;;;;5070471;28;20395;-75
2023/04/28 02:20:17;;;;;;;14.95;9.63;;;11.20;72.00;;;;;;5070495;28;20396;-72
2023/04/28 02:22:43;;;;;;;12.70;9.10;;;11.20;72.50;;;;;;5053301;28;20395;-75
2023/04/28 02:25:09;;;;;;;17.33;9.60;;;11.20;72.90;;;;;;5073574;28;20412;-74
2023/04/28 02:27:35;;;;;;;18.45;9.60;;;11.20;71.10;;;;;;5070656;28;20422;-75
2023/04/28 02:30:05;;;;;;;21.33;10.15;;;11.20;71.10;;;;;;5073958;28;20566;-75
2023/04/28 02:32:31;;;;;;;16.48;9.70;;;11.20;71.60;;;;;;5071909;28;20390;-75
2023/04/28 02:34:56;;;;;;;16.67;9.65;;;11.20;70.80;;;;;;5070241;28;20376;-74
2023/04/28 02:37:22;;;;;;;17.00;9.80;;;11.20;71.10;;;;;;5052355;28;20441;-75
2023/04/28 02:39:48;;;;;;;15.70;9.70;;;11.10;72.60;;;;;;5052355;28;20811;-75
2023/04/28 02:42:13;;;;;;;15.93;9.83;;;11.10;73.30;;;;;;5069668;28;20880;-74
2023/04/28 02:44:39;;;;;;;14.77;9.37;;;11.20;73.00;;;;;;5070093;28;20738;-73
2023/04/28 02:47:05;;;;;;;16.90;9.90;;;11.10;73.20;;;;;;5052391;28;20405;-74
2023/04/28 02:49:30;;;;;;;20.60;9.70;;;11.20;73.40;;;;;;5079458;28;20453;-73
2023/04/28 02:51:56;;;;;;;16.50;9.63;;;11.20;71.90;;;;;;5092082;28;20466;-74
2023/04/28 02:54:26;;;;;;;15.77;10.02;;;11.20;72.60;;;;;;5078540;28;20387;-74
2023/04/28 02:56:56;;;;;;;16.25;9.95;;;11.20;73.90;;;;;;5056203;28;20384;-74
2023/04/28 02:59:22;;;;;;;16.38;9.93;;;11.20;76.20;;;;;;5073267;28;20376;-74
2023/04/28 03:01:48;;;;;;;15.20;10.70;;;11.20;75.80;;;;;;5071625;28;20392;-74
2023/04/28 03:04:14;;;;;;;12.90;9.47;;;11.10;77.20;;;;;;5070982;28;20399;-75
2023/04/28 03:06:41;;;;;;;19.85;10.55;;;11.10;78.20;;;;;;5052757;28;20459;-75
2023/04/28 03:09:07;;;;;;;16.02;10.07;;;11.10;78.70;;;;;;5070185;28;20376;-74
2023/04/28 03:11:33;;;;;;;19.10;10.43;;;11.20;76.50;;;;;;5051439;28;20415;-74
2023/04/28 03:13:59;;;;;;;16.83;10.50;;;11.20;75.90;;;;;;5072594;28;20415;-73
2023/04/28 03:16:24;;;;;;;20.88;10.20;;;11.20;76.00;;;;;;5073828;28;20395;-73
2023/04/28 03:18:50;;;;;;;14.27;10.20;;;11.10;77.70;;;;;;5055759;28;20440;-73
2023/04/28 03:21:15;;;;;;;18.07;10.23;;;11.20;77.70;;;;;;5073268;28;20786;-75
2023/04/28 03:23:41;;;;;;;19.80;11.30;;;11.20;77.70;;;;;;5073271;28;20399;-73
2023/04/28 03:26:07;;;;;;;19.00;10.63;;;11.20;76.50;;;;;;5073426;28;20782;-73
2023/04/28 03:28:32;;;;;;;15.80;10.30;;;11.20;78.50;;;;;;5073639;28;20510;-74
2023/04/28 03:30:58;;;;;;;17.90;9.60;;;11.20;76.10;;;;;;5073470;28;20403;-73
2023/04/28 03:33:23;;;;;;;16.30;10.60;;;11.20;76.10;;;;;;5055916;28;20445;-74
2023/04/28 03:35:49;;;;;;;16.37;10.33;;;11.20;74.80;;;;;;5073768;28;20384;-75
2023/04/28 03:38:15;;;;;;;19.17;11.27;;;11.20;75.90;;;;;;5073691;28;20846;-73
2023/04/28 03:40:41;;;;;;;18.50;10.27;;;11.10;77.70;;;;;;5073546;28;20419;-73
2023/04/28 03:43:06;;;;;;;21.20;10.60;;;11.20;77.80;;;;;;5072762;28;20474;-74
2023/04/28 03:45:32;;;;;;;23.83;10.07;;;11.30;76.20;;;;;;5072828;28;20422;-74
2023/04/28 03:47:58;;;;;;;19.67;9.80;;;11.40;75.50;;;;;;5073219;28;20740;-73
2023/04/28 03:50:23;;;;;;;22.67;9.93;;;11.20;76.00;;;;;;5072939;28;20383;-74
2023/04/28 03:52:49;;;;;;;16.13;9.90;;;11.30;76.10;;;;;;5072481;28;20392;-74
2023/04/28 03:55:14;;;;;;;16.15;10.52;;;11.50;74.10;;;;;;5072783;28;20386;-73
2023/04/28 03:57:40;;;;;;;19.42;10.50;;;11.30;73.70;;;;;;5073281;28;20893;-74
2023/04/28 04:00:06;;;;;;;16.58;10.70;;;11.20;76.00;;;;;;5073148;28;20876;-73
2023/04/28 04:02:32;;;;;;;16.35;10.50;;;11.20;76.30;;;;;;5073010;28;20384;-74
2023/04/28 04:04:57;;;;;;;17.17;10.35;;;11.10;76.80;;;;;;5073663;28;20441;-74
2023/04/28 04:07:23;;;;;;;15.73;10.37;;;11.10;78.70;;;;;;5073386;28;20388;-74
2023/04/28 04:09:49;;;;;;;13.40;9.80;;;11.20;76.20;;;;;;5073382;28;20391;-73
2023/04/28 04:12:14;;;;;;;15.73;10.50;;;11.20;76.30;;;;;;5072753;28;20379;-74
2023/04/28 04:14:40;;;;;;;19.53;10.63;;;11.20;76.40;;;;;;5054243;28;20392;-74
2023/04/28 04:17:06;;;;;;;17.87;10.00;;;11.20;74.30;;;;;;5072508;28;20473;-74
2023/04/28 04:19:32;;;;;;;18.38;10.13;;;11.30;73.30;;;;;;5072456;28;20868;-73
2023/04/28 04:21:57;;;;;;;20.70;10.40;;;11.40;72.10;;;;;;5072096;28;20391;-74
2023/04/28 04:24:23;;;;;;;17.63;9.90;;;11.50;71.80;;;;;;5072425;28;20461;-74
2023/04/28 04:26:48;;;;;;;19.13;9.70;;;11.40;71.80;;;;;;5072521;28;20384;-74
2023/04/28 04:29:14;;;;;;;14.70;9.70;;;11.40;71.90;;;;;;5054762;28;20430;-74
2023/04/28 04:31:40;;;;;;;16.70;9.87;;;11.40;72.20;;;;;;5072070;28;20968;-74
2023/04/28 04:34:06;;;;;;;16.67;10.30;;;11.40;72.20;;;;;;5072228;28;20441;-74
2023/04/28 04:36:32;;;;;;;12.43;9.57;;;11.50;71.10;;;;;;5072204;28;20868;-74
2023/04/28 04:38:57;;;;;;;17.00;10.35;;;11.50;70.70;;;;;;5054495;28;20438;-73
2023/04/28 04:41:25;;;;;;;16.27;10.40;;;11.50;72.00;;;;;;5071971;28;20383;-73
2023/04/28 04:43:51;;;;;;;16.30;9.70;;;11.40;73.70;;;;;;5072170;28;20396;-72
2023/04/28 04:46:16;;;;;;;15.43;9.68;;;11.40;74.50;;;;;;5073128;28;20399;-73
2023/04/28 04:48:42;;;;;;;18.17;9.48;;;11.40;74.90;;;;;;5072773;28;20706;-74
2023/04/28 04:51:08;;;;;;;17.00;9.73;;;11.50;73.20;;;;;;5072833;28;20921;-74
2023/04/28 04:53:33;;;;;;;14.98;9.90;;;11.40;73.90;;;;;;5083726;28;20380;-73
2023/04/28 04:55:59;;;;;;;15.55;9.68;;;11.50;73.90;;;;;;5076201;28;20390;-74
2023/04/28 04:58:25;;;;;;;14.55;10.13;;;11.50;73.60;;;;;;5089235;28;20388;-73
2023/04/28 05:00:50;;;;;;;16.80;10.30;;;11.50;73.80;;;;;;5076891;28;20386;-73
2023/04/28 05:03:16;;;;;;;14.95;10.20;;;11.50;75.20;;;;;;5073515;28;20411;-74
2023/04/28 05:05:41;;;;;;;18.47;10.30;;;11.50;74.10;;;;;;5071694;28;20433;-74
2023/04/28 05:08:07;;;;;;;15.83;9.83;;;11.60;74.30;;;;;;5072446;28;20851;-76
2023/04/28 05:10:33;;;;;;;15.70;9.83;;;11.50;74.80;;;;;;5072370;28;20469;-73
2023/04/28 05:12:58;;;;;;;13.90;10.23;;;11.50;76.00;;;;;;5071971;28;20863;-73
2023/04/28 05:15:24;;;;;;;16.47;10.57;;;11.40;77.70;;;;;;5071939;28;20403;-73
2023/04/28 05:17:49;;;;;;;15.57;10.52;;;11.40;76.40;;;;;;5072282;28;20392;-73
2023/04/28 05:20:15;;;;;;;18.20;10.90;;;11.40;77.70;;;;;;5072190;28;20391;-74
2023/04/28 05:22:41;;;;;;;17.65;10.27;;;11.40;79.80;;;;;;5072578;28;20386;-75
2023/04/28 05:25:07;;;;;;;17.15;10.52;;;11.50;79.30;;;;;;5072265;28;20437;-74
2023/04/28 05:27:32;;;;;;;16.23;10.68;;;11.50;78.20;;;;;;5071616;28;20392;-73
2023/04/28 05:29:58;;;;;;;14.88;10.23;;;11.60;78.10;;;;;;5053864;28;20828;-75
2023/04/28 05:32:24;;;;;;;16.42;10.57;;;11.60;78.50;;;;;;5071191;28;20867;-74
2023/04/28 05:34:50;;;;;;;17.03;10.10;;;11.50;77.70;;;;;;5070946;28;20422;-74
2023/04/28 05:37:15;;;;;;;16.87;11.00;;;11.60;78.10;;;;;;5070911;28;20396;-73
2023/04/28 05:39:41;;;;;;;18.97;10.73;;;11.80;75.30;;;;;;5071844;28;20581;-73
2023/04/28 05:42:06;;;;;;;17.88;11.02;;;11.90;73.90;;;;;;5070993;28;20388;-73
2023/04/28 05:44:32;;;;;;;21.38;10.55;;;11.90;72.50;;;;;;5053151;28;20408;-73
2023/04/28 05:46:57;;;;;;;14.15;9.50;;;12.00;71.80;;;;;;5071249;28;20384;-73
2023/04/28 05:49:23;;;;;;;19.80;10.80;;;12.00;71.30;;;;;;5071157;28;20411;-73
2023/04/28 05:51:48;;;;;;;18.67;10.03;;;12.10;69.80;;;;;;5070403;28;20387;-74
2023/04/28 05:54:14;;;;;;;17.73;9.70;;;12.10;69.80;;;;;;5071798;28;20464;-75
2023/04/28 05:56:40;;;;;;;15.85;9.80;;;12.20;68.50;;;;;;5072706;28;20761;-74
2023/04/28 05:59:05;;;;;;;17.45;10.07;;;12.30;68.00;;;;;;5055664;28;20451;-74
2023/04/28 06:01:31;;;;;;;15.55;9.30;;;12.40;66.30;;;;;;5074350;28;20392;-75
2023/04/28 06:03:57;;;;;;;15.80;10.45;;;12.40;66.10;;;;;;5074081;28;20400;-74
2023/04/28 06:06:24;;;;;;;15.43;9.23;;;12.50;66.30;;;;;;5072910;28;20422;-75
2023/04/28 06:08:49;;;;;;;14.95;9.60;;;12.70;62.50;;;;;;5071616;28;20387;-74
2023/04/28 06:11:15;;;;;;;12.88;9.43;;;12.80;61.40;;;;;;5070608;28;20375;-72
2023/04/28 06:13:41;;;;;;;16.05;9.50;;;12.90;60.60;;;;;;5071040;28;20802;-73
2023/04/28 06:16:07;;;;;;;12.87;9.40;;;13.00;61.00;;;;;;5070747;28;20490;-75
2023/04/28 06:18:33;;;;;;;14.52;9.10;;;13.00;58.00;;;;;;5071368;28;20434;-74
2023/04/28 06:20:58;;;;;;;14.70;8.63;;;13.10;59.00;;;;;;5052869;28;20387;-75
2023/04/28 06:23:24;;;;;;;18.00;9.20;;;13.30;58.20;;;;;;5070672;28;20392;-75
2023/04/28 06:25:49;;;;;;;13.32;8.98;;;13.40;57.40;;;;;;5071578;28;20375;-74
2023/04/28 06:28:15;;;;;;;15.35;8.73;;;13.50;56.70;;;;;;5070789;28;20466;-73
2023/04/28 06:30:41;;;;;;;16.88;8.80;;;13.40;56.20;;;;;;5070669;28;20394;-73
2023/04/28 06:33:06;;;;;;;15.13;8.98;;;13.50;55.50;;;;;;5070293;28;20391;-73
2023/04/28 06:35:35;;;;;;;13.80;8.87;;;13.60;55.40;;;;;;5052722;28;20965;-74
2023/04/28 06:38:01;;;;;;;13.32;9.40;;;13.60;56.00;;;;;;5070701;28;20397;-72
2023/04/28 06:40:26;;;;;;;14.75;8.60;;;13.40;57.30;;;;;;5053887;28;20392;-75
2023/04/28 06:42:52;;;;;;;13.60;8.40;;;13.60;55.50;;;;;;5070649;28;20708;-74
2023/04/28 06:45:18;;;;;;;12.93;8.70;;;13.90;53.50;;;;;;5070368;28;20474;-74
2023/04/28 06:47:43;;;;;;;13.65;9.00;;;14.20;53.20;;;;;;5071387;28;20375;-73
2023/04/28 06:50:09;;;;;;;13.55;8.70;;;14.30;50.70;;;;;;5074029;28;20375;-74
2023/04/28 06:52:35;;;;;;;23.02;8.57;;;14.40;49.40;;;;;;5073726;28;20384;-75
2023/04/28 06:55:01;;;;;;;12.25;8.10;;;14.30;48.90;;;;;;5074307;28;20796;-73
2023/04/28 06:57:26;;;;;;;11.50;8.50;;;14.40;49.00;;;;;;5074217;28;20375;-74
2023/04/28 06:59:52;;;;;;;12.97;8.10;;;14.60;48.80;;;;;;5074056;28;20922;-74
2023/04/28 07:02:17;;;;;;;14.87;8.30;;;14.50;49.90;;;;;;5074045;28;20409;-73
2023/04/28 07:04:43;;;;;;;14.27;8.70;;;14.50;50.80;;;;;;5074455;28;20784;-72
2023/04/28 07:07:09;;;;;;;15.45;8.10;;;14.50;50.90;;;;;;5074361;28;20387;-74
2023/04/28 07:09:35;;;;;;;11.90;8.05;;;14.70;47.20;;;;;;5055999;28;20407;-74
2023/04/28 07:12:00;;;;;;;14.90;8.32;;;14.80;47.40;;;;;;5073919;28;20848;-74
2023/04/28 07:14:26;;;;;;;12.75;7.60;;;14.70;48.60;;;;;;5076158;28;20414;-73
2023/04/28 07:16:51;;;;;;;12.90;8.30;;;14.70;47.40;;;;;;5074049;28;20423;-73
2023/04/28 07:19:17;;;;;;;13.73;8.30;;;14.80;47.00;;;;;;5073871;28;20391;-74
2023/04/28 07:21:43;;;;;;;14.97;8.33;;;14.80;48.00;;;;;;5055283;28;20395;-73
2023/04/28 07:24:09;;;;;;;11.40;7.90;;;14.70;48.90;;;;;;5074028;28;20411;-73
2023/04/28 07:26:34;;;;;;;14.80;8.63;;;14.80;47.20;;;;;;5073612;28;20433;-74
2023/04/28 07:29:00;;;;;;;14.37;8.90;;;15.00;48.00;;;;;;5074140;28;20418;-73
2023/04/28 07:31:26;;;;;;;11.53;8.40;;;15.00;46.90;;;;;;5073640;28;20376;-75
2023/04/28 07:33:52;;;;;;;11.07;8.40;;;14.90;46.50;;;;;;5073940;28;20813;-74
2023/04/28 07:36:17;;;;;;;11.93;8.80;;;15.20;46.50;;;;;;5074147;28;20474;-74
2023/04/28 07:38:43;;;;;;;12.95;8.07;;;15.30;45.30;;;;;;5074029;28;20398;-73
2023/04/28 07:41:08;;;;;;;16.27;8.93;;;15.60;42.90;;;;;;5074325;28;20458;-72
2023/04/28 07:43:34;;;;;;;17.73;9.10;;;15.30;43.50;;;;;;5074121;28;20406;-74
2023/04/28 07:46:00;;;;;;;14.77;9.30;;;15.20;43.90;;;;;;5073300;28;20384;-74
2023/04/28 07:48:26;;;;;;;18.30;9.30;;;15.10;45.50;;;;;;5072951;28;20387;-75
2023/04/28 07:50:52;;;;;;;13.02;9.10;;;15.10;44.50;;;;;;5072815;28;20379;-72
2023/04/28 07:53:18;;;;;;;15.63;9.98;;;15.20;45.90;;;;;;5073097;28;20779;-73
2023/04/28 07:55:44;;;;;;;17.88;9.75;;;15.30;44.90;;;;;;5073427;28;20399;-73
2023/04/28 07:58:11;;;;;;;14.67;9.40;;;15.60;42.00;;;;;;5076629;28;20761;-73
2023/04/28 08:00:36;;;;;;;13.77;9.45;;;15.40;44.00;;;;;;5055911;28;20384;-74
2023/04/28 08:03:02;;;;;;;15.02;9.90;;;15.30;44.70;;;;;;5072414;28;20399;-75
2023/04/28 08:05:28;;;;;;;18.05;10.23;;;15.40;46.80;;;;;;5075953;28;20891;-75
2023/04/28 08:07:54;;;;;;;14.10;9.90;;;15.30;48.90;;;;;;5078027;28;20375;-74
2023/04/28 08:10:20;;;;;;;17.70;9.98;;;15.30;50.30;;;;;;5078624;28;20384;-75
2023/04/28 08:12:45;;;;;;;18.95;10.60;;;15.30;50.80;;;;;;5078771;28;20402;-74
2023/04/28 08:15:11;;;;;;;15.57;10.20;;;15.30;51.30;;;;;;5079939;28;20387;-75
2023/04/28 08:17:37;;;;;;;16.33;10.68;;;15.40;50.60;;;;;;5082111;28;20387;-73
2023/04/28 08:20:04;;;;;;;15.68;10.50;;;15.60;50.30;;;;;;5081952;28;20372;-75
2023/04/28 08:22:30;;;;;;;15.48;10.73;;;15.50;52.40;;;;;;5054701;28;20935;-75
2023/04/28 08:24:55;;;;;;;20.40;10.13;;;15.50;52.80;;;;;;5073006;28;20604;-74
2023/04/28 08:27:22;;;;;;;16.55;10.65;;;15.90;48.30;;;;;;5072509;28;20387;-74
2023/04/28 08:29:48;;;;;;;18.98;9.90;;;15.90;50.00;;;;;;5073482;28;20414;-75
2023/04/28 08:32:13;;;;;;;17.00;10.48;;;16.20;46.30;;;;;;5080714;28;20896;-74
2023/04/28 08:34:39;;;;;;;15.17;10.10;;;16.10;46.80;;;;;;5084949;28;20380;-75
2023/04/28 08:37:05;;;;;;;16.57;10.00;;;16.30;47.10;;;;;;5084520;28;20395;-74
2023/04/28 08:39:33;;;;;;;11.80;8.90;;;16.30;46.90;;;;;;5078015;28;20408;-73
2023/04/28 08:41:58;;;;;;;15.88;10.30;;;16.50;46.20;;;;;;5073468;28;20387;-74
2023/04/28 08:44:24;;;;;;;15.27;9.80;;;16.60;45.20;;;;;;5073076;28;20399;-73
2023/04/28 08:46:55;;;;;;;22.95;12.65;;;16.90;43.10;;;;;;5072419;28;20384;-75
2023/04/28 08:49:27;;;;;;;13.82;9.40;;;17.60;38.90;;;;;;5073434;28;20384;-75
2023/04/28 08:51:57;;;;;;;18.17;9.75;;;17.70;35.50;;;;;;5072235;28;20844;-74
2023/04/28 08:54:29;;;;;;;15.63;10.50;;;17.30;38.90;;;;;;5073465;28;20395;-74
2023/04/28 08:56:55;;;;;;;16.92;11.20;;;17.10;41.10;;;;;;5039107;28;20391;-73
2023/04/28 08:59:21;;;;;;;14.20;9.95;;;16.90;44.30;;;;;;5075833;28;20392;-75
2023/04/28 09:01:50;;;;;;;20.40;10.80;;;16.80;43.60;;;;;;5072176;28;20420;-75
2023/04/28 09:04:16;;;;;;;23.13;11.52;;;16.60;44.10;;;;;;5072995;28;20395;-74
2023/04/28 09:06:47;;;;;;;23.10;10.95;;;16.40;46.20;;;;;;5073568;28;20648;-74
2023/04/28 09:09:21;;;;;;;18.38;11.80;;;16.30;45.90;;;;;;5071579;28;20387;-74
2023/04/28 09:11:55;;;;;;;14.65;10.63;;;16.30;47.30;;;;;;5070190;28;20405;-75
2023/04/28 09:14:22;;;;;;;19.67;11.10;;;16.50;45.50;;;;;;5071008;28;20471;-75
2023/04/28 09:16:48;;;;;;;19.17;10.50;;;16.70;44.40;;;;;;5086348;22;20502;-76
2023/04/28 09:19:17;;;;;;;20.67;11.35;;;17.00;41.00;;;;;;5072038;28;20376;-76
2023/04/28 09:21:54;;;;;;;16.50;11.20;;;16.90;41.10;;;;;;5071094;28;20411;-75
2023/04/28 09:24:33;;;;;;;21.25;10.65;;;16.70;42.00;;;;;;5071283;28;20407;-74
2023/04/28 09:27:01;;;;;;;16.80;11.15;;;16.50;44.50;;;;;;5071351;28;20386;-75
2023/04/28 09:29:26;;;;;;;17.63;10.90;;;16.50;43.50;;;;;;5073474;28;20475;-75
2023/04/28 09:31:53;;;;;;;20.05;11.43;;;16.50;44.50;;;;;;5076605;28;20419;-74
2023/04/28 09:34:20;;;;;;;20.08;10.95;;;16.50;45.00;;;;;;5082430;28;20387;-75
2023/04/28 09:36:46;;;;;;;21.73;12.00;;;16.60;44.50;;;;;;5084270;28;20539;-74
2023/04/28 09:39:12;;;;;;;15.90;11.10;;;16.40;46.10;;;;;;5082346;28;20398;-76
2023/04/28 09:41:40;;;;;;;22.60;12.77;;;16.20;47.60;;;;;;5058497;28;20403;-76
2023/04/28 09:44:20;;;;;;;20.88;11.20;;;16.20;49.30;;;;;;5072349;28;20457;-75
2023/04/28 09:46:46;;;;;;;16.65;11.30;;;16.40;48.10;;;;;;5072511;28;20399;-75
2023/04/28 09:49:13;;;;;;;18.08;11.20;;;16.50;47.80;;;;;;5071728;28;20376;-76
2023/04/28 09:51:39;;;;;;;20.92;12.57;;;16.50;48.10;;;;;;5053321;28;20383;-75
2023/04/28 09:54:05;;;;;;;18.60;12.03;;;16.60;48.70;;;;;;5071407;28;20471;-75
2023/04/28 09:56:33;;;;;;;22.52;11.77;;;16.80;48.10;;;;;;5070676;28;20383;-75
2023/04/28 09:59:00;;;;;;;21.00;13.07;;;16.80;48.60;;;;;;5071233;28;20419;-76
2023/04/28 10:01:44;;;;;;;22.63;13.38;;;16.90;49.60;;;;;;5071263;28;20444;-76
2023/04/28 10:04:11;;;;;;;19.90;13.25;;;16.90;49.20;;;;;;5071313;28;20450;-76
2023/04/28 10:06:38;;;;;;;22.05;13.77;;;16.80;50.20;;;;;;5071128;28;20794;-75
2023/04/28 10:09:04;;;;;;;23.30;15.13;;;16.60;52.00;;;;;;5071257;28;20798;-75
2023/04/28 10:11:32;;;;;;;24.10;14.10;;;16.50;53.30;;;;;;5071408;28;20887;-75
2023/04/28 10:13:58;;;;;;;25.67;14.52;;;16.70;51.60;;;;;;5071049;28;20924;-76
2023/04/28 10:16:28;;;;;;;19.30;13.32;;;16.60;51.30;;;;;;5070687;28;20463;-76
2023/04/28 10:18:56;;;;;;;21.80;14.40;;;16.70;51.70;;;;;;5071719;28;20820;-76
2023/04/28 10:21:23;;;;;;;21.50;15.18;;;16.70;52.50;;;;;;5071749;28;20864;-76
2023/04/28 10:23:54;;;;;;;20.85;14.48;;;16.50;53.70;;;;;;5075418;28;20399;-75
2023/04/28 10:26:22;;;;;;;21.85;14.00;;;16.50;54.50;;;;;;5075836;28;20380;-76
2023/04/28 10:28:50;;;;;;;22.38;14.20;;;16.50;55.40;;;;;;5058264;28;20395;-76
2023/04/28 10:31:19;;;;;;;22.58;14.10;;;16.60;54.00;;;;;;5074314;28;20973;-75
2023/04/28 10:33:45;;;;;;;23.80;14.23;;;16.60;54.50;;;;;;5074855;28;20387;-75
2023/04/28 10:36:51;;;;;;;25.23;14.57;;;16.70;54.10;;;;;;5074710;28;20391;-75
2023/04/28 10:39:16;;;;;;;23.20;14.80;;;16.70;54.60;;;;;;5075682;28;20499;-77
2023/04/28 10:41:44;;;;;;;22.17;15.43;;;16.50;58.80;;;;;;5074651;28;20383;-76
2023/04/28 10:44:31;;;;;;;24.75;17.17;;;16.40;62.00;;;;;;5074649;28;20403;-77
2023/04/28 10:47:03;;;;;;;26.45;17.55;;;16.60;62.70;;;;;;5056083;28;20392;-76
2023/04/28 10:49:54;;;;;;;24.15;17.50;;;16.50;65.10;;;;;;5074926;28;20392;-76
2023/04/28 10:52:43;;;;;;;26.83;19.70;;;16.70;62.80;;;;;;5075509;28;20411;-75
2023/04/28 10:55:38;;;;;;;26.30;19.92;;;16.80;63.10;;;;;;5067369;28;20391;-76
2023/04/28 10:58:27;;;;;;;25.00;18.85;;;16.60;65.10;;;;;;5073910;28;20401;-76
2023/04/28 11:00:53;;;;;;;28.92;18.10;;;16.40;68.00;;;;;;5043856;28;20400;-75
2023/04/28 11:03:45;;;;;;;40.50;19.55;;;16.50;66.80;;;;;;5073718;28;20404;-75
2023/04/28 11:06:18;;;;;;;30.10;20.20;;;16.30;69.30;;;;;;5066880;28;20387;-75
2023/04/28 11:08:43;;;;;;;33.92;19.77;;;16.30;71.30;;;;;;5073749;28;20414;-75
2023/04/28 11:11:13;;;;;;;22.48;18.58;;;16.20;72.30;;;;;;5072907;28;21484;-76
2023/04/28 11:13:39;;;;;;;26.15;19.38;;;16.20;72.40;;;;;;5073762;28;20387;-76
2023/04/28 11:16:05;;;;;;;25.47;17.93;;;16.20;74.90;;;;;;5073759;28;20457;-77
2023/04/28 11:18:50;;;;;;;24.00;18.92;;;16.30;76.70;;;;;;5073724;28;20395;-76
2023/04/28 11:21:17;;;;;;;25.30;19.40;;;16.50;75.80;;;;;;5073106;28;20383;-75
2023/04/28 11:23:43;;;;;;;26.13;20.48;;;16.60;77.60;;;;;;5073104;28;20764;-75
2023/04/28 11:26:12;;;;;;;26.25;20.17;;;16.60;78.90;;;;;;5073421;28;20398;-75
2023/04/28 11:28:54;;;;;;;29.90;20.57;;;16.60;79.10;;;;;;5073184;28;20395;-76
2023/04/28 11:31:22;;;;;;;25.92;20.50;;;16.50;81.60;;;;;;5072243;28;20384;-76
2023/04/28 11:34:03;;;;;;;27.08;22.13;;;16.60;82.40;;;;;;5054361;28;20415;-75
2023/04/28 11:36:37;;;;;;;27.27;21.70;;;16.70;82.90;;;;;;5076682;28;20475;-76
2023/04/28 11:39:06;;;;;;;30.73;21.60;;;16.80;83.70;;;;;;5073712;28;20391;-76
2023/04/28 11:41:33;;;;;;;23.58;20.25;;;16.80;82.90;;;;;;5073166;28;20899;-75
2023/04/28 11:43:59;;;;;;;26.90;20.30;;;17.10;81.60;;;;;;5074202;28;20645;-78
2023/04/28 11:46:25;;;;;;;25.33;19.93;;;17.10;80.00;;;;;;5074321;28;20387;-76
2023/04/28 11:49:09;;;;;;;27.17;18.35;;;17.50;79.90;;;;;;5073408;28;20437;-76
2023/04/28 11:51:37;;;;;;;20.00;16.90;;;18.10;73.00;;;;;;5072703;28;20367;-75
2023/04/28 11:54:04;;;;;;;21.30;15.63;;;18.60;65.50;;;;;;5073598;28;20388;-75
2023/04/28 11:56:30;;;;;;;17.17;13.95;;;18.90;59.20;;;;;;5073421;28;20390;-76
2023/04/28 11:59:01;;;;;;;19.42;12.20;;;19.10;55.70;;;;;;5073314;28;20391;-77
2023/04/28 12:01:27;;;;;;;13.63;11.80;;;19.60;49.60;;;;;;5055374;28;20392;-75
2023/04/28 12:03:54;;;;;;;14.93;12.07;;;19.60;49.40;;;;;;5072823;28;20411;-75
2023/04/28 12:06:19;;;;;;;14.35;11.85;;;19.20;52.30;;;;;;5072565;28;20474;-75
2023/04/28 12:08:45;;;;;;;14.30;11.27;;;19.30;51.70;;;;;;5073803;28;20441;-76
2023/04/28 12:11:12;;;;;;;12.83;10.73;;;19.50;48.40;;;;;;5072947;28;20441;-76
2023/04/28 12:13:38;;;;;;;17.25;11.73;;;19.30;50.10;;;;;;5055763;28;20394;-74
2023/04/28 12:16:05;;;;;;;12.30;11.10;;;19.20;52.70;;;;;;5073466;28;20396;-75
2023/04/28 12:18:32;;;;;;;13.35;11.23;;;19.70;49.00;;;;;;5056166;28;20388;-75
2023/04/28 12:20:58;;;;;;;14.93;12.10;;;20.20;45.80;;;;;;5073122;28;20387;-76
2023/04/28 12:23:35;;;;;;;17.00;11.90;;;20.40;42.90;;;;;;5075771;28;20411;-76
2023/04/28 12:26:01;;;;;;;15.32;11.75;;;20.50;43.20;;;;;;5077834;28;20764;-75
2023/04/28 12:28:43;;;;;;;18.27;12.88;;;21.20;37.00;;;;;;5083608;28;20415;-76
2023/04/28 12:31:09;;;;;;;15.90;12.73;;;20.30;39.80;;;;;;5076912;28;20391;-74